Time;durP1;ratioP1;P1;durP2;ratioP2;P2;SDS_P1;SDS_P2;PMS_P1;PMS_P2;Temp;Humidity;BMP_temperature;BMP_pressure;BME280_temperature;BME280_humidity;BME280_pressure;Samples;Min_cycle;Max_cycle;Signal;HPM_P1;HPM_P2
2022/03/30 00:01:55;;;;;;;16.60;10.63;;;;;;;11.73;61.24;98910.69;5063641;28;20581;-59
2022/03/30 00:04:22;;;;;;;13.17;10.20;;;;;;;11.73;61.63;98910.69;5064245;28;20192;-58
2022/03/30 00:06:49;;;;;;;11.73;10.53;;;;;;;11.71;61.72;98912.47;5063531;28;20282;-59
2022/03/30 00:09:16;;;;;;;14.03;9.87;;;;;;;11.64;61.45;98911.88;5060328;28;20667;-59
2022/03/30 00:11:43;;;;;;;11.27;9.70;;;;;;;11.56;61.78;98914.78;5057501;28;20582;-58
2022/03/30 00:14:10;;;;;;;16.50;9.60;;;;;;;11.29;62.88;98910.75;5064797;28;20288;-58
2022/03/30 00:16:37;;;;;;;13.37;9.17;;;;;;;11.22;63.23;98914.47;5063116;28;20292;-58
2022/03/30 00:19:05;;;;;;;11.90;9.30;;;;;;;11.14;63.80;98908.84;5066479;28;20298;-59
2022/03/30 00:21:32;;;;;;;14.87;10.07;;;;;;;11.05;64.26;98902.31;5067637;28;20200;-59
2022/03/30 00:23:59;;;;;;;10.97;9.83;;;;;;;10.98;64.51;98915.47;5060215;28;20204;-58
2022/03/30 00:26:26;;;;;;;14.07;10.87;;;;;;;11.00;64.65;98911.94;5059484;28;20200;-60
2022/03/30 00:28:53;;;;;;;12.00;9.80;;;;;;;10.97;64.72;98913.78;5062792;28;20657;-58
2022/03/30 00:31:19;;;;;;;11.23;10.07;;;;;;;10.91;64.64;98908.91;5062613;28;20235;-58
2022/03/30 00:33:48;;;;;;;14.67;10.03;;;;;;;10.77;65.45;98914.56;5066667;28;20201;-58
2022/03/30 00:36:16;;;;;;;12.70;9.97;;;;;;;10.81;65.26;98907.59;5065673;28;20208;-58
2022/03/30 00:38:43;;;;;;;12.30;9.73;;;;;;;10.72;65.21;98911.34;5062191;28;20223;-58
2022/03/30 00:41:10;;;;;;;11.67;10.37;;;;;;;10.71;65.76;98901.16;5062346;28;20641;-58
2022/03/30 00:43:37;;;;;;;9.93;8.73;;;;;;;10.64;65.78;98907.38;5066735;28;20280;-59
2022/03/30 00:46:04;;;;;;;13.77;9.87;;;;;;;10.61;65.89;98904.94;5066093;28;20236;-58
2022/03/30 00:48:31;;;;;;;12.90;9.57;;;;;;;10.56;65.99;98906.88;5062693;28;20192;-58
2022/03/30 00:50:58;;;;;;;11.40;10.13;;;;;;;10.55;65.76;98900.91;5065345;28;20204;-59
2022/03/30 00:53:26;;;;;;;10.00;9.03;;;;;;;10.48;66.55;98894.31;5071257;28;20630;-58
2022/03/30 00:55:54;;;;;;;12.20;9.73;;;;;;;10.51;65.82;98900.19;5066228;28;20200;-58
2022/03/30 00:58:22;;;;;;;11.13;9.80;;;;;;;10.44;66.22;98896.16;5058951;28;20231;-58
2022/03/30 01:00:50;;;;;;;13.37;9.53;;;;;;;10.50;66.34;98893.38;5063987;28;20201;-59
2022/03/30 01:03:16;;;;;;;11.53;9.90;;;;;;;10.53;66.50;98897.56;5058420;28;20291;-59
2022/03/30 01:05:43;;;;;;;13.27;9.90;;;;;;;10.49;66.46;98886.59;5070093;28;20292;-59
2022/03/30 01:08:10;;;;;;;11.40;10.23;;;;;;;10.46;65.99;98886.72;5059378;28;20231;-59
2022/03/30 01:10:39;;;;;;;12.53;10.30;;;;;;;10.50;66.54;98883.13;5064123;28;20671;-59
2022/03/30 01:13:07;;;;;;;10.80;9.10;;;;;;;10.50;66.10;98878.00;5060626;28;20192;-58
2022/03/30 01:15:34;;;;;;;10.63;9.53;;;;;;;10.49;66.00;98884.03;5062525;28;20580;-58
2022/03/30 01:18:02;;;;;;;11.67;10.43;;;;;;;10.47;66.39;98883.25;5057548;28;20205;-58
2022/03/30 01:20:30;;;;;;;20.00;10.33;;;;;;;10.50;66.25;98888.25;5053090;28;20266;-58
2022/03/30 01:22:58;;;;;;;10.30;9.23;;;;;;;10.50;65.95;98890.00;5065758;28;20699;-59
2022/03/30 01:25:25;;;;;;;12.33;9.80;;;;;;;10.43;66.17;98897.09;5062613;28;20326;-59
2022/03/30 01:27:52;;;;;;;10.63;9.53;;;;;;;10.33;66.46;98890.63;5061175;28;20284;-59
2022/03/30 01:33:05;;;;;;;11.63;9.47;;;;;;;10.18;66.77;98896.28;5066038;28;20211;-59
2022/03/30 01:35:33;;;;;;;12.20;9.73;;;;;;;10.13;67.06;98903.28;5051522;28;20681;-59
2022/03/30 01:38:01;;;;;;;10.13;8.27;;;;;;;10.12;66.92;98899.06;5062940;28;20211;-59
2022/03/30 01:40:28;;;;;;;10.50;9.40;;;;;;;10.03;66.93;98895.09;5067334;28;20664;-59
2022/03/30 01:42:55;;;;;;;11.53;9.57;;;;;;;10.10;66.73;98898.28;5057884;28;20580;-58
2022/03/30 01:45:23;;;;;;;11.77;9.33;;;;;;;10.10;66.79;98900.84;5057916;28;20676;-58
2022/03/30 01:47:51;;;;;;;11.47;9.80;;;;;;;10.09;66.57;98901.72;5058717;28;20717;-59
2022/03/30 01:50:18;;;;;;;12.43;9.90;;;;;;;10.05;66.98;98887.34;5060361;28;20275;-58
2022/03/30 01:52:46;;;;;;;10.93;9.83;;;;;;;10.02;66.71;98890.03;5060784;28;20220;-58
2022/03/30 01:55:15;;;;;;;10.37;9.00;;;;;;;10.07;67.04;98906.09;5060933;28;20192;-59
2022/03/30 01:57:41;;;;;;;12.40;9.90;;;;;;;10.06;66.95;98903.56;5060749;28;20323;-58
2022/03/30 02:00:10;;;;;;;13.07;8.93;;;;;;;10.05;66.90;98902.72;5054559;28;20227;-58
2022/03/30 02:02:38;;;;;;;16.00;9.67;;;;;;;10.05;66.89;98902.72;5058265;28;20292;-58
2022/03/30 02:05:08;;;;;;;11.13;9.63;;;;;;;10.03;66.87;98909.63;5062295;28;20207;-58
2022/03/30 02:07:35;;;;;;;14.80;10.37;;;;;;;10.07;67.34;98908.63;5060583;28;20235;-58
2022/03/30 02:10:02;;;;;;;15.73;9.43;;;;;;;9.95;67.89;98909.91;5059187;28;20275;-58
2022/03/30 02:12:31;;;;;;;10.07;8.83;;;;;;;9.84;67.84;98906.06;5052425;28;20212;-58
2022/03/30 02:14:58;;;;;;;10.47;9.53;;;;;;;9.87;68.48;98918.75;5068723;28;20314;-59
2022/03/30 02:17:26;;;;;;;11.07;9.97;;;;;;;9.81;68.33;98916.41;5063871;28;20203;-59
2022/03/30 02:19:54;;;;;;;18.63;13.93;;;;;;;9.77;69.11;98914.84;5069364;28;20220;-59
2022/03/30 02:22:22;;;;;;;11.33;10.13;;;;;;;9.80;68.84;98919.84;5058189;28;20204;-58
2022/03/30 02:24:48;;;;;;;14.20;9.87;;;;;;;9.82;68.72;98918.91;5062577;28;20200;-58
2022/03/30 02:27:16;;;;;;;12.23;9.47;;;;;;;9.85;68.66;98907.72;5059618;28;20300;-59
2022/03/30 02:29:44;;;;;;;10.33;9.33;;;;;;;9.82;68.82;98900.97;5060999;28;20196;-58
2022/03/30 02:32:11;;;;;;;15.10;8.57;;;;;;;9.84;68.93;98913.72;5063327;28;20673;-59
2022/03/30 02:34:38;;;;;;;9.80;9.03;;;;;;;9.83;68.69;98914.63;5067616;28;20283;-59
2022/03/30 02:37:06;;;;;;;18.00;9.80;;;;;;;9.83;68.86;98912.06;5065820;28;20235;-59
2022/03/30 02:39:33;;;;;;;10.60;9.60;;;;;;;9.74;69.39;98913.22;5057247;28;20220;-58
2022/03/30 02:42:00;;;;;;;11.77;8.10;;;;;;;9.66;69.51;98910.06;5051537;28;20291;-58
2022/03/30 02:44:26;;;;;;;10.57;9.23;;;;;;;9.63;69.53;98907.63;5059807;28;20205;-58
2022/03/30 02:46:55;;;;;;;12.57;9.57;;;;;;;9.58;70.16;98908.66;5062648;28;20669;-59
2022/03/30 02:49:22;;;;;;;11.00;9.80;;;;;;;9.54;69.99;98899.41;5059846;28;20292;-59
2022/03/30 02:51:49;;;;;;;10.30;9.47;;;;;;;9.41;70.61;98902.41;5065298;28;20279;-58
2022/03/30 02:54:16;;;;;;;11.87;9.50;;;;;;;9.42;71.11;98908.34;5063086;28;20204;-59
2022/03/30 02:56:42;;;;;;;15.13;9.13;;;;;;;9.46;70.63;98915.88;5058865;28;20289;-59
2022/03/30 02:59:09;;;;;;;10.97;9.97;;;;;;;9.45;70.80;98909.09;5061750;28;20319;-58
2022/03/30 03:01:36;;;;;;;13.47;9.63;;;;;;;9.36;71.05;98914.53;5054555;28;20630;-59
2022/03/30 03:04:05;;;;;;;11.00;9.73;;;;;;;9.07;71.24;98883.09;5071306;28;20291;-58
2022/03/30 03:06:32;;;;;;;10.53;9.60;;;;;;;9.24;71.75;98924.31;5060369;28;20287;-58
2022/03/30 03:08:59;;;;;;;13.10;9.93;;;;;;;9.19;71.33;98915.94;5054008;28;20189;-59
2022/03/30 03:11:26;;;;;;;14.63;10.37;;;;;;;9.20;71.47;98918.47;5058586;28;20234;-58
2022/03/30 03:13:53;;;;;;;14.80;9.37;;;;;;;9.19;71.62;98913.38;5058670;28;20299;-59
2022/03/30 03:16:20;;;;;;;16.60;10.77;;;;;;;9.14;71.32;98908.44;5049622;28;20275;-58
2022/03/30 03:18:47;;;;;;;10.87;9.80;;;;;;;9.09;71.66;98909.44;5059424;28;20205;-58
2022/03/30 03:21:15;;;;;;;16.53;9.90;;;;;;;9.14;71.23;98918.66;5066738;28;20711;-58
2022/03/30 03:23:42;;;;;;;14.37;9.13;;;;;;;9.09;71.33;98917.13;5056048;28;20288;-58
2022/03/30 03:26:09;;;;;;;12.17;9.57;;;;;;;9.10;71.53;98919.63;5063227;28;20735;-58
2022/03/30 03:28:36;;;;;;;21.77;10.90;;;;;;;9.11;71.52;98917.91;5055865;28;20727;-58
2022/03/30 03:31:04;;;;;;;13.90;9.77;;;;;;;9.10;71.51;98917.09;5055519;28;20279;-58
2022/03/30 03:33:31;;;;;;;15.13;9.13;;;;;;;9.05;72.14;98918.94;5055485;28;20258;-58
2022/03/30 03:35:59;;;;;;;11.47;9.63;;;;;;;8.96;72.35;98909.84;5054057;28;20219;-58
2022/03/30 03:38:27;;;;;;;18.63;9.70;;;;;;;8.91;72.88;98910.88;5054961;28;20208;-58
2022/03/30 03:40:54;;;;;;;17.60;11.07;;;;;;;8.91;72.86;98910.88;5052213;28;20303;-58
2022/03/30 03:43:21;;;;;;;22.67;10.60;;;;;;;8.93;72.72;98914.22;5065935;28;20329;-59
2022/03/30 03:45:48;;;;;;;11.03;9.70;;;;;;;8.94;72.55;98918.44;5066662;28;20660;-58
2022/03/30 03:48:14;;;;;;;24.43;11.50;;;;;;;8.96;72.67;98914.13;5056504;28;20230;-58
2022/03/30 03:50:42;;;;;;;13.30;10.93;;;;;;;8.93;72.64;98915.06;5059228;28;20279;-58
2022/03/30 03:53:09;;;;;;;17.93;10.73;;;;;;;8.91;72.99;98910.88;5056558;28;20230;-58
2022/03/30 03:55:37;;;;;;;17.33;11.03;;;;;;;8.79;73.44;98906.97;5058934;28;20414;-59
2022/03/30 03:58:05;;;;;;;21.53;11.17;;;;;;;8.84;73.71;98914.50;5061822;28;20224;-58
2022/03/30 04:00:34;;;;;;;22.67;11.77;;;;;;;8.79;73.99;98918.91;5061612;28;20306;-58
2022/03/30 04:03:02;;;;;;;18.57;12.13;;;;;;;8.71;74.35;98921.72;5059142;28;20201;-58
2022/03/30 04:05:29;;;;;;;25.30;14.07;;;;;;;8.67;74.54;98909.06;5050692;28;20287;-58
2022/03/30 04:07:56;;;;;;;41.43;18.87;;;;;;;8.60;74.70;98905.84;5053446;28;20280;-58
2022/03/30 04:10:23;;;;;;;39.87;21.37;;;;;;;8.53;75.43;98906.09;5054365;28;20193;-59
2022/03/30 04:12:51;;;;;;;37.03;22.30;;;;;;;8.50;75.23;98913.84;5063445;28;20286;-58
2022/03/30 04:15:18;;;;;;;41.23;22.93;;;;;;;8.42;75.65;98906.41;5061718;28;20283;-58
2022/03/30 04:17:46;;;;;;;40.80;21.20;;;;;;;8.46;75.88;98917.38;5059470;28;20280;-59
2022/03/30 04:20:14;;;;;;;38.03;20.03;;;;;;;8.37;75.60;98919.31;5057715;28;20216;-58
2022/03/30 04:22:41;;;;;;;42.60;22.40;;;;;;;8.10;76.29;98899.66;5062256;28;20214;-59
2022/03/30 04:25:09;;;;;;;50.93;21.40;;;;;;;8.19;77.15;98919.81;5059608;28;20639;-58
2022/03/30 04:27:36;;;;;;;36.13;17.77;;;;;;;8.13;77.19;98919.13;5061568;28;20295;-58
2022/03/30 04:30:05;;;;;;;50.63;25.97;;;;;;;8.03;77.74;98921.09;5059259;28;20205;-58
2022/03/30 04:32:32;;;;;;;49.23;22.23;;;;;;;8.07;78.43;98920.16;5065419;28;20200;-58
2022/03/30 04:34:59;;;;;;;38.00;20.77;;;;;;;8.13;78.51;98932.75;5068299;28;20292;-58
2022/03/30 04:37:26;;;;;;;36.60;19.73;;;;;;;8.15;78.36;98917.38;5071470;28;20691;-58
2022/03/30 04:39:53;;;;;;;34.00;17.70;;;;;;;8.22;78.08;98929.09;5059964;28;20299;-59
2022/03/30 04:42:20;;;;;;;27.43;14.30;;;;;;;8.28;77.52;98924.69;5066711;28;20285;-58
2022/03/30 04:44:48;;;;;;;25.03;14.63;;;;;;;8.30;77.78;98932.31;5064703;28;20246;-58
2022/03/30 04:47:16;;;;;;;17.33;13.43;;;;;;;8.31;77.78;98932.25;5062217;28;20205;-58
2022/03/30 04:49:43;;;;;;;22.47;13.20;;;;;;;8.33;78.26;98938.16;5055833;28;20279;-58
2022/03/30 04:52:11;;;;;;;27.13;13.60;;;;;;;8.34;77.98;98929.59;5070786;28;20279;-58
2022/03/30 04:54:38;;;;;;;23.07;14.20;;;;;;;8.40;77.68;98939.66;5065362;28;20279;-58
2022/03/30 04:57:05;;;;;;;39.60;23.50;;;;;;;8.46;77.85;98935.25;5065224;28;20554;-59
2022/03/30 04:59:32;;;;;;;27.00;16.93;;;;;;;8.59;77.54;98944.22;5073715;28;20215;-58
2022/03/30 05:01:59;;;;;;;22.93;14.37;;;;;;;8.62;77.28;98928.81;5060045;28;20286;-58
2022/03/30 05:04:29;;;;;;;15.30;12.20;;;;;;;8.70;76.98;98937.91;5062755;28;20210;-58
2022/03/30 05:06:56;;;;;;;26.23;14.87;;;;;;;8.78;76.42;98932.59;5068131;28;20204;-57
2022/03/30 05:09:24;;;;;;;22.10;14.13;;;;;;;8.78;76.48;98928.31;5061960;28;20259;-58
2022/03/30 05:11:51;;;;;;;24.03;12.07;;;;;;;8.97;75.73;98941.34;5056387;28;20197;-59
2022/03/30 05:14:18;;;;;;;36.93;14.40;;;;;;;9.09;75.09;98946.09;5061896;28;20212;-59
2022/03/30 05:16:45;;;;;;;22.20;14.73;;;;;;;9.22;75.53;98947.38;5068047;28;20206;-58
2022/03/30 05:19:12;;;;;;;30.50;15.10;;;;;;;9.28;75.13;98942.06;5061100;28;20683;-58
2022/03/30 05:21:41;;;;;;;31.10;16.73;;;;;;;9.36;74.87;98947.78;5070475;28;20207;-58
2022/03/30 05:24:08;;;;;;;32.20;15.87;;;;;;;9.38;74.51;98946.00;5061577;28;20286;-58
2022/03/30 05:26:35;;;;;;;23.57;14.50;;;;;;;9.21;74.25;98915.00;5060448;28;20200;-58
2022/03/30 05:29:02;;;;;;;23.73;12.37;;;;;;;9.41;73.74;98958.69;5062456;28;20204;-58
2022/03/30 05:31:29;;;;;;;18.57;12.73;;;;;;;9.58;73.47;98954.72;5067104;28;20207;-58
2022/03/30 05:33:56;;;;;;;16.10;11.53;;;;;;;9.67;72.73;98954.41;5061612;28;20239;-58
2022/03/30 05:36:23;;;;;;;16.00;11.27;;;;;;;9.78;73.58;98947.22;5053711;28;20323;-60
2022/03/30 05:38:51;;;;;;;16.50;10.60;;;;;;;9.97;73.13;98953.38;5058621;28;20287;-58
2022/03/30 05:41:18;;;;;;;11.80;10.63;;;;;;;10.07;73.22;98953.91;5070899;28;20227;-58
2022/03/30 05:43:45;;;;;;;16.07;12.07;;;;;;;10.19;73.23;98959.44;5063880;28;20215;-58
2022/03/30 05:46:12;;;;;;;18.00;11.00;;;;;;;10.43;72.63;98958.59;5057463;28;20283;-58
2022/03/30 05:48:39;;;;;;;14.83;10.90;;;;;;;10.52;72.00;98942.84;5057552;28;20275;-59
2022/03/30 05:51:07;;;;;;;15.37;10.83;;;;;;;10.78;71.23;98959.00;5067113;28;20612;-59
2022/03/30 05:53:34;;;;;;;15.70;12.10;;;;;;;11.02;70.84;98958.03;5054356;28;20283;-58
2022/03/30 05:56:02;;;;;;;17.80;12.30;;;;;;;11.26;70.41;98951.94;5056411;28;20212;-58
2022/03/30 05:58:29;;;;;;;13.33;11.07;;;;;;;11.41;69.56;98953.88;5070392;28;20791;-58
2022/03/30 06:00:56;;;;;;;12.60;10.87;;;;;;;11.59;68.38;98950.59;5061192;28;20222;-58
2022/03/30 06:03:23;;;;;;;18.40;10.90;;;;;;;11.73;67.60;98931.25;5057342;28;20279;-58
2022/03/30 06:05:51;;;;;;;16.23;11.77;;;;;;;12.03;66.39;98947.88;5069618;28;20615;-58
2022/03/30 06:08:18;;;;;;;16.50;12.17;;;;;;;12.12;66.39;98921.78;5061626;28;20621;-58
2022/03/30 06:10:45;;;;;;;18.57;12.57;;;;;;;12.38;65.91;98936.88;5067029;28;20196;-59
2022/03/30 06:13:13;;;;;;;17.20;11.63;;;;;;;12.63;64.35;98944.34;5066574;28;20673;-59
2022/03/30 06:15:41;;;;;;;17.43;10.90;;;;;;;12.82;64.84;98939.19;5052636;28;20247;-59
2022/03/30 06:18:11;;;;;;;18.43;11.83;;;;;;;12.96;64.47;98944.50;5067051;28;20663;-58
2022/03/30 06:20:39;;;;;;;15.67;10.90;;;;;;;13.12;63.74;98940.31;5059771;28;20224;-60
2022/03/30 06:23:06;;;;;;;13.90;11.37;;;;;;;13.40;61.59;98945.84;5055067;28;20673;-59
2022/03/30 06:25:33;;;;;;;22.57;11.77;;;;;;;13.58;61.04;98947.50;5060771;28;20196;-59
2022/03/30 06:28:00;;;;;;;12.03;10.83;;;;;;;13.66;61.09;98952.28;5067377;28;20218;-59
2022/03/30 06:30:28;;;;;;;13.13;10.97;;;;;;;13.84;60.43;98953.91;5066313;28;20660;-59
2022/03/30 06:32:55;;;;;;;19.77;12.00;;;;;;;13.97;60.24;98956.72;5065430;28;20200;-59
2022/03/30 06:35:23;;;;;;;19.30;13.13;;;;;;;14.16;59.35;98965.16;5056169;28;20288;-59
2022/03/30 06:37:50;;;;;;;15.10;11.83;;;;;;;14.43;58.86;98962.94;5065818;28;20204;-59
2022/03/30 06:40:18;;;;;;;21.33;12.53;;;;;;;14.55;58.90;98965.69;5061222;28;20219;-59
2022/03/30 06:42:45;;;;;;;14.70;12.13;;;;;;;14.77;57.44;98964.53;5058535;28;20189;-58
2022/03/30 06:45:12;;;;;;;19.43;12.97;;;;;;;15.03;57.46;98971.69;5051765;28;20207;-59
2022/03/30 06:47:41;;;;;;;13.87;12.47;;;;;;;15.35;57.53;98973.31;5053933;28;20287;-60
2022/03/30 06:50:09;;;;;;;14.87;12.40;;;;;;;15.63;55.27;98977.81;5062882;28;20193;-59
2022/03/30 06:52:36;;;;;;;24.13;13.13;;;;;;;15.82;54.37;98968.06;5063224;28;20255;-59
2022/03/30 06:55:05;;;;;;;17.93;13.37;;;;;;;15.92;55.01;98973.53;5055179;28;20202;-59
2022/03/30 06:57:32;;;;;;;13.80;12.47;;;;;;;16.20;53.01;98973.56;5060497;28;20232;-59
2022/03/30 06:59:59;;;;;;;21.73;12.83;;;;;;;16.43;52.97;98970.41;5059525;28;20199;-59
2022/03/30 07:02:26;;;;;;;19.70;12.80;;;;;;;16.60;52.13;98969.44;5054191;28;20655;-60
2022/03/30 07:04:54;;;;;;;14.43;12.30;;;;;;;16.75;52.42;98977.06;5061435;28;20730;-60
2022/03/30 07:10:18;;;;;;;17.00;12.43;;;;;;;17.11;51.62;98973.09;5056731;28;20691;-59
2022/03/30 07:12:47;;;;;;;17.97;13.03;;;;;;;17.18;52.60;98972.63;5059641;28;20200;-59
2022/03/30 07:15:16;;;;;;;20.63;11.77;;;;;;;17.24;51.41;98974.00;5065374;28;20271;-60
2022/03/30 07:17:48;;;;;;;17.13;11.90;;;;;;;17.33;52.51;98968.22;5064750;28;20235;-59
2022/03/30 07:20:18;;;;;;;14.43;12.93;;;;;;;17.50;52.02;98978.31;5052495;28;20227;-60
2022/03/30 07:22:45;;;;;;;16.53;11.73;;;;;;;17.62;50.43;98974.97;5067668;28;20699;-60
2022/03/30 07:25:13;;;;;;;15.93;12.63;;;;;;;17.76;50.72;98961.09;5059461;28;20207;-60
2022/03/30 07:27:41;;;;;;;16.70;11.80;;;;;;;17.96;49.05;98960.59;5055694;28;20342;-59
2022/03/30 07:30:10;;;;;;;23.67;13.10;;;;;;;18.30;49.08;98972.09;5064784;28;20635;-60
2022/03/30 07:32:38;;;;;;;18.60;12.03;;;;;;;18.59;49.19;98972.72;5061923;28;20204;-59
2022/03/30 07:35:05;;;;;;;16.63;12.50;;;;;;;18.65;49.57;98972.28;5063657;28;20203;-60
2022/03/30 07:37:34;;;;;;;25.63;13.33;;;;;;;18.62;48.66;98972.50;5063859;28;20564;-60
2022/03/30 07:40:02;;;;;;;15.27;12.10;;;;;;;18.56;49.24;98971.19;5060934;28;20287;-59
2022/03/30 07:42:29;;;;;;;20.90;12.03;;;;;;;18.72;49.24;98974.38;5060538;28;20283;-59
2022/03/30 07:44:56;;;;;;;19.07;11.87;;;;;;;18.69;47.79;98953.81;5061350;28;20200;-60
2022/03/30 07:47:25;;;;;;;19.33;11.93;;;;;;;19.12;48.26;98977.56;5056068;28;20208;-60
2022/03/30 07:49:52;;;;;;;15.27;11.93;;;;;;;19.32;49.58;98968.34;5054594;28;20693;-60
2022/03/30 07:52:20;;;;;;;18.27;11.60;;;;;;;19.43;46.53;98976.22;5061719;28;20283;-59
2022/03/30 07:54:49;;;;;;;13.53;11.67;;;;;;;19.44;46.55;98971.84;5065824;28;20195;-60
2022/03/30 07:57:16;;;;;;;15.97;13.03;;;;;;;19.33;47.99;98964.78;5062379;28;20223;-60
2022/03/30 07:59:43;;;;;;;29.60;13.20;;;;;;;19.38;47.45;98963.53;5064717;28;20291;-60
2022/03/30 08:02:13;;;;;;;19.43;12.50;;;;;;;19.52;45.28;98965.13;5057121;28;20303;-59
2022/03/30 08:04:40;;;;;;;24.83;12.40;;;;;;;19.50;45.24;98956.63;5057210;28;20201;-59
2022/03/30 08:07:06;;;;;;;19.30;12.30;;;;;;;19.56;46.87;98956.16;5067644;28;20201;-60
2022/03/30 08:09:33;;;;;;;19.00;12.13;;;;;;;19.74;44.59;98943.59;5066570;28;20196;-59
2022/03/30 08:12:02;;;;;;;21.87;11.63;;;;;;;19.66;45.53;98951.94;5064606;28;20192;-60
2022/03/30 08:14:29;;;;;;;19.67;11.90;;;;;;;19.68;44.05;98944.84;5065781;28;20575;-60
2022/03/30 08:16:56;;;;;;;14.90;11.97;;;;;;;19.68;43.57;98947.44;5063024;28;20199;-60
2022/03/30 08:19:23;;;;;;;17.47;11.67;;;;;;;19.75;43.15;98930.44;5062386;28;20299;-60
2022/03/30 08:24:35;;;;;;;17.23;11.67;;;;;;;20.19;43.72;98954.88;5066042;28;20752;-60
2022/03/30 08:27:04;;;;;;;14.93;11.27;;;;;;;20.07;45.03;98961.00;5064726;28;20673;-60
2022/03/30 08:29:31;;;;;;;23.53;12.57;;;;;;;20.07;45.30;98955.78;5062286;28;20996;-60
2022/03/30 08:31:58;;;;;;;14.73;11.90;;;;;;;20.29;46.27;98948.06;5060563;28;20280;-60
2022/03/30 08:34:25;;;;;;;21.40;13.33;;;;;;;20.25;43.19;98938.78;5069637;28;20287;-61
2022/03/30 08:36:52;;;;;;;15.73;11.77;;;;;;;20.13;44.98;98942.34;5054506;28;20289;-60
2022/03/30 08:39:18;;;;;;;19.13;12.63;;;;;;;20.02;44.27;98900.69;5068064;28;20239;-60
2022/03/30 08:41:47;;;;;;;20.77;12.63;;;;;;;20.27;43.94;98935.16;5074228;28;20219;-61
2022/03/30 08:44:17;;;;;;;22.80;12.87;;;;;;;20.09;44.54;98930.50;5063242;28;20206;-60
2022/03/30 08:46:45;;;;;;;17.57;13.50;;;;;;;20.12;45.42;98931.09;5066202;28;20196;-59
2022/03/30 08:49:13;;;;;;;25.37;13.27;;;;;;;20.33;43.67;98920.81;5070944;28;20197;-61
2022/03/30 08:51:42;;;;;;;20.83;14.23;;;;;;;20.41;43.52;98928.88;5057027;28;20201;-60
2022/03/30 08:54:12;;;;;;;29.07;16.73;;;;;;;20.68;43.88;98923.31;5068796;28;20204;-60
2022/03/30 08:56:39;;;;;;;18.10;14.10;;;;;;;20.80;42.08;98917.94;5067925;28;20579;-60
2022/03/30 08:59:07;;;;;;;22.07;13.97;;;;;;;20.73;42.42;98916.78;5071028;28;20224;-60
2022/03/30 09:01:37;;;;;;;25.90;12.80;;;;;;;20.51;42.74;98910.78;5058192;28;20246;-60
2022/03/30 09:04:08;;;;;;;30.73;14.03;;;;;;;20.74;41.77;98910.59;5064677;28;20292;-60
2022/03/30 09:06:37;;;;;;;15.90;11.40;;;;;;;20.84;41.79;98900.28;5060604;28;20281;-60
2022/03/30 09:09:06;;;;;;;18.67;13.73;;;;;;;20.88;42.07;98891.25;5062813;28;20291;-60
2022/03/30 09:11:45;;;;;;;18.37;11.67;;;;;;;20.70;41.78;98893.56;5059347;28;20215;-60
2022/03/30 09:14:13;;;;;;;16.70;10.13;;;;;;;20.88;42.36;98891.25;5064182;28;20201;-60
2022/03/30 09:16:44;;;;;;;16.37;9.87;;;;;;;20.85;42.32;98886.28;5063230;28;20200;-61
2022/03/30 09:19:13;;;;;;;14.27;10.03;;;;;;;20.65;42.92;98880.06;5068567;28;20580;-60
2022/03/30 09:21:44;;;;;;;13.37;9.77;;;;;;;20.82;43.10;98887.38;5059666;28;20216;-60
2022/03/30 09:24:12;;;;;;;15.27;9.83;;;;;;;20.86;41.93;98878.38;5063475;28;20205;-59
2022/03/30 09:26:39;;;;;;;14.53;10.30;;;;;;;21.04;41.72;98870.00;5066954;28;20286;-59
2022/03/30 09:29:07;;;;;;;12.93;10.30;;;;;;;21.18;41.74;98861.91;5057106;28;20200;-60
2022/03/30 09:31:36;;;;;;;13.70;11.33;;;;;;;21.40;40.51;98862.63;5061918;28;20288;-60
2022/03/30 09:34:05;;;;;;;14.40;9.97;;;;;;;21.53;40.96;98857.22;5063537;28;20197;-60
2022/03/30 09:36:34;;;;;;;12.70;9.83;;;;;;;21.42;42.34;98854.69;5066544;28;20652;-61
2022/03/30 09:39:01;;;;;;;18.40;10.77;;;;;;;21.47;40.88;98857.72;5058282;28;20665;-60
2022/03/30 09:41:45;;;;;;;17.23;10.33;;;;;;;21.50;39.56;98844.44;5070602;28;20241;-60
2022/03/30 09:44:12;;;;;;;15.40;11.07;;;;;;;21.60;39.75;98855.75;5064320;28;20201;-60
2022/03/30 09:46:52;;;;;;;16.13;9.83;;;;;;;21.35;38.84;98837.91;5056840;28;20696;-60
2022/03/30 09:49:38;;;;;;;11.63;10.13;;;;;;;21.50;40.71;98835.78;5068535;28;20206;-59
2022/03/30 09:52:20;;;;;;;10.63;9.63;;;;;;;21.80;39.71;98833.22;5052366;28;20289;-60
2022/03/30 09:54:50;;;;;;;19.33;10.03;;;;;;;22.00;39.49;98839.38;5052327;28;20288;-60
2022/03/30 09:57:19;;;;;;;21.53;10.83;;;;;;;21.92;39.50;98832.19;5059489;28;20682;-60
2022/03/30 10:00:02;;;;;;;13.23;10.07;;;;;;;22.10;37.97;98829.78;5062693;28;20258;-59
2022/03/30 10:02:31;;;;;;;13.83;10.27;;;;;;;22.10;37.72;98821.97;5052250;28;20219;-60
2022/03/30 10:05:00;;;;;;;17.93;10.73;;;;;;;22.16;37.96;98811.81;5064552;28;20300;-59
2022/03/30 10:07:29;;;;;;;10.80;9.70;;;;;;;22.33;39.16;98805.09;5061102;28;20203;-60
2022/03/30 10:09:57;;;;;;;11.00;9.40;;;;;;;22.22;38.25;98807.84;5059933;28;20287;-60
2022/03/30 10:12:24;;;;;;;13.37;10.47;;;;;;;22.09;37.24;98812.47;5059178;28;20542;-60
2022/03/30 10:14:51;;;;;;;11.13;9.30;;;;;;;22.09;38.12;98817.69;5060624;28;20211;-60
2022/03/30 10:17:19;;;;;;;14.03;9.10;;;;;;;22.16;37.38;98809.19;5060037;28;20204;-61
2022/03/30 10:19:46;;;;;;;15.23;10.63;;;;;;;22.13;36.65;98808.66;5059420;28;20770;-61
2022/03/30 10:22:45;;;;;;;17.87;10.07;;;;;;;21.90;36.49;98808.84;5063351;28;20224;-60
2022/03/30 10:25:25;;;;;;;15.47;9.40;;;;;;;21.97;36.79;98809.94;5060687;28;20285;-60
2022/03/30 10:27:54;;;;;;;13.20;10.07;;;;;;;22.27;38.17;98816.91;5066616;28;20256;-60
2022/03/30 10:30:29;;;;;;;14.07;9.70;;;;;;;22.28;38.58;98813.34;5064384;28;20203;-60
2022/03/30 10:32:59;;;;;;;10.63;9.10;;;;;;;22.30;37.19;98811.41;5070553;28;20599;-60
2022/03/30 10:35:39;;;;;;;13.43;9.33;;;;;;;22.22;37.30;98781.72;5066019;28;20203;-61
2022/03/30 10:38:08;;;;;;;11.70;9.33;;;;;;;22.20;37.52;98799.28;5070127;28;20655;-61
2022/03/30 10:40:36;;;;;;;13.03;9.77;;;;;;;22.13;37.40;98795.59;5071507;28;21149;-60
2022/03/30 10:43:08;;;;;;;14.17;11.60;;;;;;;22.19;36.73;98787.22;5070591;28;20214;-60
2022/03/30 10:45:48;;;;;;;10.67;9.27;;;;;;;22.36;37.32;98783.94;5052061;28;20668;-61
2022/03/30 10:48:21;;;;;;;15.83;10.73;;;;;;;22.40;36.51;98777.47;5060138;28;20204;-61
2022/03/30 10:50:51;;;;;;;12.07;9.53;;;;;;;22.31;36.14;98776.53;5069872;28;20668;-60
2022/03/30 10:53:46;;;;;;;11.97;10.30;;;;;;;22.23;35.50;98772.94;5062989;28;20287;-60
2022/03/30 10:56:30;;;;;;;9.23;8.13;;;;;;;22.04;36.22;98762.44;5057529;28;20195;-60
2022/03/30 10:59:17;;;;;;;16.87;11.07;;;;;;;21.98;36.71;98748.97;5062959;28;20233;-60
2022/03/30 11:01:46;;;;;;;11.83;9.57;;;;;;;21.94;36.60;98750.19;5060350;28;20706;-60
2022/03/30 11:04:20;;;;;;;14.23;10.67;;;;;;;22.02;35.68;98759.13;5054115;28;20262;-60
2022/03/30 11:06:49;;;;;;;16.07;10.23;;;;;;;22.01;35.35;98747.03;5067543;28;20647;-60
2022/03/30 11:09:28;;;;;;;15.27;9.87;;;;;;;22.11;35.75;98742.66;5055522;28;20211;-60
2022/03/30 11:12:00;;;;;;;11.23;8.83;;;;;;;22.01;35.05;98736.59;5052523;28;20710;-60
2022/03/30 11:14:31;;;;;;;14.37;9.20;;;;;;;21.75;34.92;98739.66;5064678;28;20752;-60
2022/03/30 11:17:00;;;;;;;10.53;8.40;;;;;;;21.93;35.73;98722.47;5060788;28;20281;-60
2022/03/30 11:19:31;;;;;;;15.07;9.47;;;;;;;22.00;35.36;98708.88;5060870;28;20671;-60
2022/03/30 11:22:16;;;;;;;11.53;9.37;;;;;;;22.15;35.81;98697.91;5068026;28;20302;-60
2022/03/30 11:24:47;;;;;;;15.40;9.97;;;;;;;22.33;35.23;98698.03;5069471;28;20203;-60
2022/03/30 11:27:19;;;;;;;15.40;10.03;;;;;;;22.39;35.17;98685.25;5064983;28;20207;-60
2022/03/30 11:30:14;;;;;;;16.77;9.43;;;;;;;22.37;36.11;98681.13;5050972;28;20207;-60
2022/03/30 11:32:44;;;;;;;13.97;9.33;;;;;;;22.48;35.76;98673.16;5045091;28;20580;-61
2022/03/30 11:35:13;;;;;;;13.97;10.07;;;;;;;22.71;35.51;98668.50;5063729;28;20293;-60
2022/03/30 11:37:41;;;;;;;12.13;8.93;;;;;;;22.89;35.94;98661.56;5062290;28;20204;-61